sensor_id;sensor_type;location;lat;lon;timestamp;temperature;humidity
19799;DHT22;10059;59.850;10.454;2022-11-20T00:01:16;0.10;99.90
19799;DHT22;10059;59.850;10.454;2022-11-20T00:03:44;0.10;99.90
19799;DHT22;10059;59.850;10.454;2022-11-20T00:06:12;0.10;99.90
19799;DHT22;10059;59.850;10.454;2022-11-20T00:08:40;0.10;99.90
19799;DHT22;10059;59.850;10.454;2022-11-20T00:11:08;0.10;99.90
19799;DHT22;10059;59.850;10.454;2022-11-20T00:13:35;0.10;99.90
19799;DHT22;10059;59.850;10.454;2022-11-20T00:16:05;0.10;99.90
19799;DHT22;10059;59.850;10.454;2022-11-20T00:18:33;0.10;99.90
19799;DHT22;10059;59.850;10.454;2022-11-20T00:21:01;0.10;99.90
19799;DHT22;10059;59.850;10.454;2022-11-20T00:23:28;0.10;99.90
19799;DHT22;10059;59.850;10.454;2022-11-20T00:25:55;0.10;99.90
19799;DHT22;10059;59.850;10.454;2022-11-20T00:28:22;0.10;99.90
19799;DHT22;10059;59.850;10.454;2022-11-20T00:30:49;0.20;99.90
19799;DHT22;10059;59.850;10.454;2022-11-20T00:33:17;0.00;99.90
19799;DHT22;10059;59.850;10.454;2022-11-20T00:35:44;0.10;99.90
19799;DHT22;10059;59.850;10.454;2022-11-20T00:38:11;0.10;99.90
19799;DHT22;10059;59.850;10.454;2022-11-20T00:40:38;0.00;99.90
19799;DHT22;10059;59.850;10.454;2022-11-20T00:43:05;0.00;99.90
19799;DHT22;10059;59.850;10.454;2022-11-20T00:45:31;0.00;99.90
19799;DHT22;10059;59.850;10.454;2022-11-20T00:47:58;0.10;99.90
19799;DHT22;10059;59.850;10.454;2022-11-20T00:50:27;0.00;99.90
19799;DHT22;10059;59.850;10.454;2022-11-20T00:52:53;0.00;99.90
19799;DHT22;10059;59.850;10.454;2022-11-20T00:55:20;0.10;99.90
19799;DHT22;10059;59.850;10.454;2022-11-20T00:57:47;0.10;99.90
19799;DHT22;10059;59.850;10.454;2022-11-20T01:00:15;0.10;99.90
19799;DHT22;10059;59.850;10.454;2022-11-20T01:02:42;0.10;99.90
19799;DHT22;10059;59.850;10.454;2022-11-20T01:05:08;0.10;99.90
19799;DHT22;10059;59.850;10.454;2022-11-20T01:07:37;0.20;99.90
19799;DHT22;10059;59.850;10.454;2022-11-20T01:10:04;0.10;99.90
19799;DHT22;10059;59.850;10.454;2022-11-20T01:12:31;0.10;99.90
19799;DHT22;10059;59.850;10.454;2022-11-20T01:14:58;0.10;99.90
19799;DHT22;10059;59.850;10.454;2022-11-20T01:17:25;0.10;99.90
19799;DHT22;10059;59.850;10.454;2022-11-20T01:19:52;0.00;99.90
19799;DHT22;10059;59.850;10.454;2022-11-20T01:22:19;0.10;99.90
19799;DHT22;10059;59.850;10.454;2022-11-20T01:24:47;0.00;99.90
19799;DHT22;10059;59.850;10.454;2022-11-20T01:27:14;0.00;99.90
19799;DHT22;10059;59.850;10.454;2022-11-20T01:29:41;-0.10;99.90
19799;DHT22;10059;59.850;10.454;2022-11-20T01:32:07;-0.10;99.90
19799;DHT22;10059;59.850;10.454;2022-11-20T01:34:34;-0.20;99.90
19799;DHT22;10059;59.850;10.454;2022-11-20T01:37:01;-0.10;99.90
19799;DHT22;10059;59.850;10.454;2022-11-20T01:39:28;-0.10;99.90
19799;DHT22;10059;59.850;10.454;2022-11-20T01:41:57;0.00;99.90
19799;DHT22;10059;59.850;10.454;2022-11-20T01:44:50;0.10;99.90
19799;DHT22;10059;59.850;10.454;2022-11-20T01:47:21;0.10;99.90
19799;DHT22;10059;59.850;10.454;2022-11-20T01:49:54;0.10;99.90
19799;DHT22;10059;59.850;10.454;2022-11-20T01:52:24;0.10;99.90
19799;DHT22;10059;59.850;10.454;2022-11-20T01:54:56;0.10;99.90
19799;DHT22;10059;59.850;10.454;2022-11-20T01:57:27;0.10;99.90
19799;DHT22;10059;59.850;10.454;2022-11-20T02:00:00;0.00;99.90
19799;DHT22;10059;59.850;10.454;2022-11-20T02:02:29;-0.10;99.90
19799;DHT22;10059;59.850;10.454;2022-11-20T02:05:00;0.00;99.90
19799;DHT22;10059;59.850;10.454;2022-11-20T02:07:29;0.10;99.90
19799;DHT22;10059;59.850;10.454;2022-11-20T02:09:57;0.10;99.90
19799;DHT22;10059;59.850;10.454;2022-11-20T02:12:25;0.00;99.90
19799;DHT22;10059;59.850;10.454;2022-11-20T02:15:10;0.00;99.90
19799;DHT22;10059;59.850;10.454;2022-11-20T02:17:37;0.00;99.90
19799;DHT22;10059;59.850;10.454;2022-11-20T02:20:05;0.10;99.90
19799;DHT22;10059;59.850;10.454;2022-11-20T02:22:38;0.00;99.90
19799;DHT22;10059;59.850;10.454;2022-11-20T02:25:10;0.10;99.90
19799;DHT22;10059;59.850;10.454;2022-11-20T02:27:37;0.10;99.90
19799;DHT22;10059;59.850;10.454;2022-11-20T02:30:06;0.00;99.90
19799;DHT22;10059;59.850;10.454;2022-11-20T02:32:35;0.10;99.90
19799;DHT22;10059;59.850;10.454;2022-11-20T02:35:08;0.10;99.90
19799;DHT22;10059;59.850;10.454;2022-11-20T02:37:38;0.10;99.90
19799;DHT22;10059;59.850;10.454;2022-11-20T02:40:06;0.10;99.90
19799;DHT22;10059;59.850;10.454;2022-11-20T02:42:35;0.10;99.90
19799;DHT22;10059;59.850;10.454;2022-11-20T02:45:02;0.20;99.90
19799;DHT22;10059;59.850;10.454;2022-11-20T02:47:29;0.10;99.90
19799;DHT22;10059;59.850;10.454;2022-11-20T02:49:56;0.10;99.90
19799;DHT22;10059;59.850;10.454;2022-11-20T02:52:24;0.10;99.90
19799;DHT22;10059;59.850;10.454;2022-11-20T02:54:51;0.20;99.90
19799;DHT22;10059;59.850;10.454;2022-11-20T02:57:18;0.20;99.90
19799;DHT22;10059;59.850;10.454;2022-11-20T02:59:46;0.20;99.90
19799;DHT22;10059;59.850;10.454;2022-11-20T03:02:13;0.10;99.90
19799;DHT22;10059;59.850;10.454;2022-11-20T03:04:40;0.20;99.90
19799;DHT22;10059;59.850;10.454;2022-11-20T03:07:07;0.30;99.90
19799;DHT22;10059;59.850;10.454;2022-11-20T03:09:35;0.30;99.90
19799;DHT22;10059;59.850;10.454;2022-11-20T03:12:02;0.20;99.90
19799;DHT22;10059;59.850;10.454;2022-11-20T03:14:29;0.30;99.90
19799;DHT22;10059;59.850;10.454;2022-11-20T03:16:58;0.30;99.90
19799;DHT22;10059;59.850;10.454;2022-11-20T03:19:25;0.20;99.90
19799;DHT22;10059;59.850;10.454;2022-11-20T03:21:51;0.20;99.90
19799;DHT22;10059;59.850;10.454;2022-11-20T03:24:21;0.30;99.90
19799;DHT22;10059;59.850;10.454;2022-11-20T03:26:48;0.30;99.90
19799;DHT22;10059;59.850;10.454;2022-11-20T03:29:15;0.20;99.90
19799;DHT22;10059;59.850;10.454;2022-11-20T03:31:42;0.20;99.90
19799;DHT22;10059;59.850;10.454;2022-11-20T03:34:11;0.20;99.90
19799;DHT22;10059;59.850;10.454;2022-11-20T03:36:38;0.20;99.90
19799;DHT22;10059;59.850;10.454;2022-11-20T03:39:06;0.30;99.90
19799;DHT22;10059;59.850;10.454;2022-11-20T03:41:37;0.30;99.90
19799;DHT22;10059;59.850;10.454;2022-11-20T03:44:07;0.20;99.90
19799;DHT22;10059;59.850;10.454;2022-11-20T03:46:34;0.10;99.90
19799;DHT22;10059;59.850;10.454;2022-11-20T03:49:02;0.10;99.90
19799;DHT22;10059;59.850;10.454;2022-11-20T03:51:31;0.00;99.90
19799;DHT22;10059;59.850;10.454;2022-11-20T03:54:00;0.10;99.90
19799;DHT22;10059;59.850;10.454;2022-11-20T03:56:29;0.10;99.90
19799;DHT22;10059;59.850;10.454;2022-11-20T03:58:56;-0.10;99.90
19799;DHT22;10059;59.850;10.454;2022-11-20T04:01:25;-0.20;99.90
19799;DHT22;10059;59.850;10.454;2022-11-20T04:03:53;-0.10;99.90
19799;DHT22;10059;59.850;10.454;2022-11-20T04:06:22;-0.10;99.90
19799;DHT22;10059;59.850;10.454;2022-11-20T04:08:51;-0.20;99.90
19799;DHT22;10059;59.850;10.454;2022-11-20T04:11:20;-0.10;99.90
19799;DHT22;10059;59.850;10.454;2022-11-20T04:13:48;0.00;99.90
19799;DHT22;10059;59.850;10.454;2022-11-20T04:16:15;0.10;99.90
19799;DHT22;10059;59.850;10.454;2022-11-20T04:18:43;0.00;99.90
19799;DHT22;10059;59.850;10.454;2022-11-20T04:21:10;0.10;99.90
19799;DHT22;10059;59.850;10.454;2022-11-20T04:23:38;-0.20;99.90
19799;DHT22;10059;59.850;10.454;2022-11-20T04:26:08;-0.10;99.90
19799;DHT22;10059;59.850;10.454;2022-11-20T04:28:37;-0.20;99.90
19799;DHT22;10059;59.850;10.454;2022-11-20T04:31:06;-0.10;99.90
19799;DHT22;10059;59.850;10.454;2022-11-20T04:33:33;0.00;99.90
19799;DHT22;10059;59.850;10.454;2022-11-20T04:36:02;-0.10;99.90
19799;DHT22;10059;59.850;10.454;2022-11-20T04:38:29;-0.20;99.90
19799;DHT22;10059;59.850;10.454;2022-11-20T04:40:58;-0.20;99.90
19799;DHT22;10059;59.850;10.454;2022-11-20T04:43:26;-0.20;99.90
19799;DHT22;10059;59.850;10.454;2022-11-20T04:45:54;-0.20;99.90
19799;DHT22;10059;59.850;10.454;2022-11-20T04:48:21;-0.30;99.90
19799;DHT22;10059;59.850;10.454;2022-11-20T04:50:48;-0.20;99.90
19799;DHT22;10059;59.850;10.454;2022-11-20T04:53:15;-0.20;99.90
19799;DHT22;10059;59.850;10.454;2022-11-20T04:55:42;-0.30;99.90
19799;DHT22;10059;59.850;10.454;2022-11-20T04:58:09;-0.20;99.90
19799;DHT22;10059;59.850;10.454;2022-11-20T05:00:37;-0.20;99.90
19799;DHT22;10059;59.850;10.454;2022-11-20T05:03:04;-0.20;99.90
19799;DHT22;10059;59.850;10.454;2022-11-20T05:05:32;-0.30;99.90
19799;DHT22;10059;59.850;10.454;2022-11-20T05:07:59;-0.40;99.90
19799;DHT22;10059;59.850;10.454;2022-11-20T05:10:27;-0.30;99.90
19799;DHT22;10059;59.850;10.454;2022-11-20T05:12:54;-0.30;99.90
19799;DHT22;10059;59.850;10.454;2022-11-20T05:15:21;-0.20;99.90
19799;DHT22;10059;59.850;10.454;2022-11-20T05:17:50;-0.20;99.90
19799;DHT22;10059;59.850;10.454;2022-11-20T05:20:17;-0.20;99.90
19799;DHT22;10059;59.850;10.454;2022-11-20T05:22:44;-0.20;99.90
19799;DHT22;10059;59.850;10.454;2022-11-20T05:25:11;-0.10;99.90
19799;DHT22;10059;59.850;10.454;2022-11-20T05:27:38;-0.10;99.90
19799;DHT22;10059;59.850;10.454;2022-11-20T05:30:06;0.00;99.90
19799;DHT22;10059;59.850;10.454;2022-11-20T05:32:34;-0.10;99.90
19799;DHT22;10059;59.850;10.454;2022-11-20T05:35:02;0.00;99.90
19799;DHT22;10059;59.850;10.454;2022-11-20T05:37:29;0.00;99.90
19799;DHT22;10059;59.850;10.454;2022-11-20T05:39:56;0.00;99.90
19799;DHT22;10059;59.850;10.454;2022-11-20T05:42:23;0.00;99.90
19799;DHT22;10059;59.850;10.454;2022-11-20T05:45:00;0.00;99.90
19799;DHT22;10059;59.850;10.454;2022-11-20T05:47:28;0.00;99.90
19799;DHT22;10059;59.850;10.454;2022-11-20T05:49:55;0.00;99.90
19799;DHT22;10059;59.850;10.454;2022-11-20T05:52:23;0.00;99.90
19799;DHT22;10059;59.850;10.454;2022-11-20T05:54:50;0.00;99.90
19799;DHT22;10059;59.850;10.454;2022-11-20T05:57:17;0.00;99.90
19799;DHT22;10059;59.850;10.454;2022-11-20T05:59:44;-0.10;99.90
19799;DHT22;10059;59.850;10.454;2022-11-20T06:02:11;-0.10;99.90
19799;DHT22;10059;59.850;10.454;2022-11-20T06:04:38;-0.20;99.90
19799;DHT22;10059;59.850;10.454;2022-11-20T06:07:05;-0.20;99.90
19799;DHT22;10059;59.850;10.454;2022-11-20T06:09:34;-0.20;99.90
19799;DHT22;10059;59.850;10.454;2022-11-20T06:12:00;-0.20;99.90
19799;DHT22;10059;59.850;10.454;2022-11-20T06:14:27;-0.20;99.90
19799;DHT22;10059;59.850;10.454;2022-11-20T06:16:54;-0.20;99.90
19799;DHT22;10059;59.850;10.454;2022-11-20T06:19:21;-0.30;99.90
19799;DHT22;10059;59.850;10.454;2022-11-20T06:21:48;-0.30;99.90
19799;DHT22;10059;59.850;10.454;2022-11-20T06:24:15;-0.20;99.90
19799;DHT22;10059;59.850;10.454;2022-11-20T06:26:44;-0.10;99.90
19799;DHT22;10059;59.850;10.454;2022-11-20T06:29:11;0.00;99.90
19799;DHT22;10059;59.850;10.454;2022-11-20T06:31:38;0.00;99.90
19799;DHT22;10059;59.850;10.454;2022-11-20T06:34:05;0.00;99.90
19799;DHT22;10059;59.850;10.454;2022-11-20T06:36:33;-0.10;99.90
19799;DHT22;10059;59.850;10.454;2022-11-20T06:39:00;-0.10;99.90
19799;DHT22;10059;59.850;10.454;2022-11-20T06:41:27;-0.10;99.90
19799;DHT22;10059;59.850;10.454;2022-11-20T06:43:56;-0.10;99.90
19799;DHT22;10059;59.850;10.454;2022-11-20T06:46:23;-0.10;99.90
19799;DHT22;10059;59.850;10.454;2022-11-20T06:48:50;-0.20;99.90
19799;DHT22;10059;59.850;10.454;2022-11-20T06:51:17;-0.10;99.90
19799;DHT22;10059;59.850;10.454;2022-11-20T06:53:44;-0.10;99.90
19799;DHT22;10059;59.850;10.454;2022-11-20T06:56:11;-0.10;99.90
19799;DHT22;10059;59.850;10.454;2022-11-20T06:58:38;0.00;99.90
19799;DHT22;10059;59.850;10.454;2022-11-20T07:01:07;-0.10;99.90
19799;DHT22;10059;59.850;10.454;2022-11-20T07:03:35;0.00;99.90
19799;DHT22;10059;59.850;10.454;2022-11-20T07:06:02;-0.10;99.90
19799;DHT22;10059;59.850;10.454;2022-11-20T07:08:29;-0.10;99.90
19799;DHT22;10059;59.850;10.454;2022-11-20T07:10:58;-0.10;99.90
19799;DHT22;10059;59.850;10.454;2022-11-20T07:13:25;-0.20;99.90
19799;DHT22;10059;59.850;10.454;2022-11-20T07:15:52;-0.10;99.90
19799;DHT22;10059;59.850;10.454;2022-11-20T07:18:21;-0.10;99.90
19799;DHT22;10059;59.850;10.454;2022-11-20T07:20:47;-0.10;99.90
19799;DHT22;10059;59.850;10.454;2022-11-20T07:23:14;-0.10;99.90
19799;DHT22;10059;59.850;10.454;2022-11-20T07:25:41;0.00;99.90
19799;DHT22;10059;59.850;10.454;2022-11-20T07:28:08;-0.10;99.90
19799;DHT22;10059;59.850;10.454;2022-11-20T07:30:36;0.00;99.90
19799;DHT22;10059;59.850;10.454;2022-11-20T07:33:03;0.00;99.90
19799;DHT22;10059;59.850;10.454;2022-11-20T07:35:31;0.00;99.90
19799;DHT22;10059;59.850;10.454;2022-11-20T07:37:58;-0.10;99.90
19799;DHT22;10059;59.850;10.454;2022-11-20T07:40:25;0.00;99.90
19799;DHT22;10059;59.850;10.454;2022-11-20T07:42:53;0.10;99.90
19799;DHT22;10059;59.850;10.454;2022-11-20T07:45:22;0.00;99.90
19799;DHT22;10059;59.850;10.454;2022-11-20T07:47:49;0.00;99.90
19799;DHT22;10059;59.850;10.454;2022-11-20T07:50:17;0.00;99.90
19799;DHT22;10059;59.850;10.454;2022-11-20T07:52:45;0.00;99.90
19799;DHT22;10059;59.850;10.454;2022-11-20T07:55:12;0.10;99.90
19799;DHT22;10059;59.850;10.454;2022-11-20T07:57:42;0.10;99.90
19799;DHT22;10059;59.850;10.454;2022-11-20T08:00:11;0.00;99.90
19799;DHT22;10059;59.850;10.454;2022-11-20T08:02:38;-0.10;99.90
19799;DHT22;10059;59.850;10.454;2022-11-20T08:05:06;0.00;99.90
19799;DHT22;10059;59.850;10.454;2022-11-20T08:07:36;0.00;99.90
19799;DHT22;10059;59.850;10.454;2022-11-20T08:10:05;0.20;99.90
19799;DHT22;10059;59.850;10.454;2022-11-20T08:12:33;0.20;99.90
19799;DHT22;10059;59.850;10.454;2022-11-20T08:15:26;0.10;99.90
19799;DHT22;10059;59.850;10.454;2022-11-20T08:17:59;0.20;99.90
19799;DHT22;10059;59.850;10.454;2022-11-20T08:20:26;0.20;99.90
19799;DHT22;10059;59.850;10.454;2022-11-20T08:22:57;0.20;99.90
19799;DHT22;10059;59.850;10.454;2022-11-20T08:25:26;0.20;99.90
19799;DHT22;10059;59.850;10.454;2022-11-20T08:27:53;0.30;99.90
19799;DHT22;10059;59.850;10.454;2022-11-20T08:30:20;0.30;99.90
19799;DHT22;10059;59.850;10.454;2022-11-20T08:32:47;0.20;99.90
19799;DHT22;10059;59.850;10.454;2022-11-20T08:35:14;0.30;99.90
19799;DHT22;10059;59.850;10.454;2022-11-20T08:37:41;0.30;99.90
19799;DHT22;10059;59.850;10.454;2022-11-20T08:40:10;0.30;99.90
19799;DHT22;10059;59.850;10.454;2022-11-20T08:42:46;0.20;99.90
19799;DHT22;10059;59.850;10.454;2022-11-20T08:45:13;0.30;99.90
19799;DHT22;10059;59.850;10.454;2022-11-20T08:47:40;0.30;99.90
19799;DHT22;10059;59.850;10.454;2022-11-20T08:50:08;0.30;99.90
19799;DHT22;10059;59.850;10.454;2022-11-20T08:52:35;0.40;99.90
19799;DHT22;10059;59.850;10.454;2022-11-20T08:55:02;0.20;99.90
19799;DHT22;10059;59.850;10.454;2022-11-20T08:57:31;0.20;99.90
19799;DHT22;10059;59.850;10.454;2022-11-20T09:00:00;0.30;99.90
19799;DHT22;10059;59.850;10.454;2022-11-20T09:02:27;0.30;99.90
19799;DHT22;10059;59.850;10.454;2022-11-20T09:04:54;0.40;99.90
19799;DHT22;10059;59.850;10.454;2022-11-20T09:07:21;0.30;99.90
19799;DHT22;10059;59.850;10.454;2022-11-20T09:09:47;0.30;99.90
19799;DHT22;10059;59.850;10.454;2022-11-20T09:12:14;0.30;99.90
19799;DHT22;10059;59.850;10.454;2022-11-20T09:14:41;0.30;99.90
19799;DHT22;10059;59.850;10.454;2022-11-20T09:17:11;0.40;99.90
19799;DHT22;10059;59.850;10.454;2022-11-20T09:19:40;0.20;99.90
19799;DHT22;10059;59.850;10.454;2022-11-20T09:22:07;0.30;99.90
19799;DHT22;10059;59.850;10.454;2022-11-20T09:24:34;0.40;99.90
19799;DHT22;10059;59.850;10.454;2022-11-20T09:27:03;0.50;99.90
19799;DHT22;10059;59.850;10.454;2022-11-20T09:29:30;0.50;99.90
19799;DHT22;10059;59.850;10.454;2022-11-20T09:31:56;0.40;99.90
19799;DHT22;10059;59.850;10.454;2022-11-20T09:34:25;0.50;99.90
19799;DHT22;10059;59.850;10.454;2022-11-20T09:36:52;0.50;99.90
19799;DHT22;10059;59.850;10.454;2022-11-20T09:39:18;0.50;99.90
19799;DHT22;10059;59.850;10.454;2022-11-20T09:41:58;0.50;99.90
19799;DHT22;10059;59.850;10.454;2022-11-20T09:44:39;0.60;99.90
19799;DHT22;10059;59.850;10.454;2022-11-20T09:47:11;0.70;99.90
19799;DHT22;10059;59.850;10.454;2022-11-20T09:49:58;0.70;99.90
19799;DHT22;10059;59.850;10.454;2022-11-20T09:52:36;0.70;99.90
19799;DHT22;10059;59.850;10.454;2022-11-20T09:55:09;0.50;99.90
19799;DHT22;10059;59.850;10.454;2022-11-20T09:57:40;0.40;99.90
19799;DHT22;10059;59.850;10.454;2022-11-20T10:00:11;0.40;99.90
19799;DHT22;10059;59.850;10.454;2022-11-20T10:02:42;0.40;99.90
19799;DHT22;10059;59.850;10.454;2022-11-20T10:05:17;0.30;99.90
19799;DHT22;10059;59.850;10.454;2022-11-20T10:07:48;0.50;99.90
19799;DHT22;10059;59.850;10.454;2022-11-20T10:10:26;0.80;99.90
19799;DHT22;10059;59.850;10.454;2022-11-20T10:13:10;0.90;99.90
19799;DHT22;10059;59.850;10.454;2022-11-20T10:15:50;0.90;99.90
19799;DHT22;10059;59.850;10.454;2022-11-20T10:18:27;0.80;99.90
19799;DHT22;10059;59.850;10.454;2022-11-20T10:21:07;0.80;99.90
19799;DHT22;10059;59.850;10.454;2022-11-20T10:23:49;0.80;99.90
19799;DHT22;10059;59.850;10.454;2022-11-20T10:26:25;0.80;99.90
19799;DHT22;10059;59.850;10.454;2022-11-20T10:29:07;0.90;99.90
19799;DHT22;10059;59.850;10.454;2022-11-20T10:31:37;0.90;99.90
19799;DHT22;10059;59.850;10.454;2022-11-20T10:34:07;0.90;99.90
19799;DHT22;10059;59.850;10.454;2022-11-20T10:36:44;1.00;99.90
19799;DHT22;10059;59.850;10.454;2022-11-20T10:39:18;1.00;99.90
19799;DHT22;10059;59.850;10.454;2022-11-20T10:41:50;0.90;99.90
19799;DHT22;10059;59.850;10.454;2022-11-20T10:44:20;0.90;99.90
19799;DHT22;10059;59.850;10.454;2022-11-20T10:47:03;0.90;99.90
19799;DHT22;10059;59.850;10.454;2022-11-20T10:49:30;1.00;99.90
19799;DHT22;10059;59.850;10.454;2022-11-20T10:52:09;1.10;99.90
19799;DHT22;10059;59.850;10.454;2022-11-20T10:54:45;1.00;99.90
19799;DHT22;10059;59.850;10.454;2022-11-20T10:57:31;1.10;99.90
19799;DHT22;10059;59.850;10.454;2022-11-20T11:00:05;1.20;99.90
19799;DHT22;10059;59.850;10.454;2022-11-20T11:02:35;1.20;99.90
19799;DHT22;10059;59.850;10.454;2022-11-20T11:05:12;1.30;99.90
19799;DHT22;10059;59.850;10.454;2022-11-20T11:07:45;1.30;99.90
19799;DHT22;10059;59.850;10.454;2022-11-20T11:10:16;1.40;99.90
19799;DHT22;10059;59.850;10.454;2022-11-20T11:12:45;1.30;99.90
19799;DHT22;10059;59.850;10.454;2022-11-20T11:15:24;1.30;99.90
19799;DHT22;10059;59.850;10.454;2022-11-20T11:17:51;1.30;99.90
19799;DHT22;10059;59.850;10.454;2022-11-20T11:20:20;1.30;99.90
19799;DHT22;10059;59.850;10.454;2022-11-20T11:22:49;1.30;99.90
19799;DHT22;10059;59.850;10.454;2022-11-20T11:25:23;1.00;99.90
19799;DHT22;10059;59.850;10.454;2022-11-20T11:27:52;0.90;99.90
19799;DHT22;10059;59.850;10.454;2022-11-20T11:30:21;0.90;99.90
19799;DHT22;10059;59.850;10.454;2022-11-20T11:32:48;0.90;99.90
19799;DHT22;10059;59.850;10.454;2022-11-20T11:35:24;1.00;99.90
19799;DHT22;10059;59.850;10.454;2022-11-20T11:37:54;1.00;99.90
19799;DHT22;10059;59.850;10.454;2022-11-20T11:40:22;1.20;99.90
19799;DHT22;10059;59.850;10.454;2022-11-20T11:42:56;1.10;99.90
19799;DHT22;10059;59.850;10.454;2022-11-20T11:45:24;1.20;99.90
19799;DHT22;10059;59.850;10.454;2022-11-20T11:47:52;1.10;99.90
19799;DHT22;10059;59.850;10.454;2022-11-20T11:50:22;1.00;99.90
19799;DHT22;10059;59.850;10.454;2022-11-20T11:52:58;1.10;99.90
19799;DHT22;10059;59.850;10.454;2022-11-20T11:55:33;1.20;99.90
19799;DHT22;10059;59.850;10.454;2022-11-20T11:58:14;1.10;99.90
19799;DHT22;10059;59.850;10.454;2022-11-20T12:00:50;1.20;99.90
19799;DHT22;10059;59.850;10.454;2022-11-20T12:03:21;1.10;99.90
19799;DHT22;10059;59.850;10.454;2022-11-20T12:05:55;1.20;99.90
19799;DHT22;10059;59.850;10.454;2022-11-20T12:08:28;1.20;99.90
19799;DHT22;10059;59.850;10.454;2022-11-20T12:11:01;1.20;99.90
19799;DHT22;10059;59.850;10.454;2022-11-20T12:13:40;1.20;99.90
19799;DHT22;10059;59.850;10.454;2022-11-20T12:16:11;1.20;99.90
19799;DHT22;10059;59.850;10.454;2022-11-20T12:18:39;1.30;99.90
19799;DHT22;10059;59.850;10.454;2022-11-20T12:21:17;1.30;99.90
19799;DHT22;10059;59.850;10.454;2022-11-20T12:23:56;1.20;99.90
19799;DHT22;10059;59.850;10.454;2022-11-20T12:26:40;1.30;99.90
19799;DHT22;10059;59.850;10.454;2022-11-20T12:29:16;1.20;99.90
19799;DHT22;10059;59.850;10.454;2022-11-20T12:32:20;1.20;99.90
19799;DHT22;10059;59.850;10.454;2022-11-20T12:35:00;1.20;99.90
19799;DHT22;10059;59.850;10.454;2022-11-20T12:37:38;1.30;99.90
19799;DHT22;10059;59.850;10.454;2022-11-20T12:40:22;1.30;99.90
19799;DHT22;10059;59.850;10.454;2022-11-20T12:43:01;1.20;99.90
19799;DHT22;10059;59.850;10.454;2022-11-20T12:46:08;1.30;99.90
19799;DHT22;10059;59.850;10.454;2022-11-20T12:48:47;1.20;99.90
19799;DHT22;10059;59.850;10.454;2022-11-20T12:51:32;1.30;99.90
19799;DHT22;10059;59.850;10.454;2022-11-20T12:54:14;1.20;99.90
19799;DHT22;10059;59.850;10.454;2022-11-20T12:56:49;1.10;99.90
19799;DHT22;10059;59.850;10.454;2022-11-20T12:59:28;1.00;99.90
19799;DHT22;10059;59.850;10.454;2022-11-20T13:02:09;1.00;99.90
19799;DHT22;10059;59.850;10.454;2022-11-20T13:04:53;1.10;99.90
19799;DHT22;10059;59.850;10.454;2022-11-20T13:07:24;1.00;99.90
19799;DHT22;10059;59.850;10.454;2022-11-20T13:09:53;1.00;99.90
19799;DHT22;10059;59.850;10.454;2022-11-20T13:12:27;1.00;99.90
19799;DHT22;10059;59.850;10.454;2022-11-20T13:15:02;1.00;99.90
19799;DHT22;10059;59.850;10.454;2022-11-20T13:17:36;0.80;99.90
19799;DHT22;10059;59.850;10.454;2022-11-20T13:20:06;0.90;99.90
19799;DHT22;10059;59.850;10.454;2022-11-20T13:22:44;0.80;99.90
19799;DHT22;10059;59.850;10.454;2022-11-20T13:25:22;0.80;99.90
19799;DHT22;10059;59.850;10.454;2022-11-20T13:27:52;0.80;99.90
19799;DHT22;10059;59.850;10.454;2022-11-20T13:30:20;0.80;99.90
19799;DHT22;10059;59.850;10.454;2022-11-20T13:32:52;0.90;99.90
19799;DHT22;10059;59.850;10.454;2022-11-20T13:35:27;0.70;99.90
19799;DHT22;10059;59.850;10.454;2022-11-20T13:38:08;0.80;99.90
19799;DHT22;10059;59.850;10.454;2022-11-20T13:40:37;0.90;99.90
19799;DHT22;10059;59.850;10.454;2022-11-20T13:43:18;0.80;99.90
19799;DHT22;10059;59.850;10.454;2022-11-20T13:45:55;0.80;99.90
19799;DHT22;10059;59.850;10.454;2022-11-20T13:48:24;0.80;99.90
19799;DHT22;10059;59.850;10.454;2022-11-20T13:51:07;0.70;99.90
19799;DHT22;10059;59.850;10.454;2022-11-20T13:54:01;0.70;99.90
19799;DHT22;10059;59.850;10.454;2022-11-20T13:56:40;0.80;99.90
19799;DHT22;10059;59.850;10.454;2022-11-20T13:59:23;0.80;99.90
19799;DHT22;10059;59.850;10.454;2022-11-20T14:01:54;0.80;99.90
19799;DHT22;10059;59.850;10.454;2022-11-20T14:04:27;0.70;99.90
19799;DHT22;10059;59.850;10.454;2022-11-20T14:06:56;0.70;99.90
19799;DHT22;10059;59.850;10.454;2022-11-20T14:09:28;0.70;99.90
19799;DHT22;10059;59.850;10.454;2022-11-20T14:11:55;0.80;99.90
19799;DHT22;10059;59.850;10.454;2022-11-20T14:14:25;0.60;99.90
19799;DHT22;10059;59.850;10.454;2022-11-20T14:17:04;0.50;99.90
19799;DHT22;10059;59.850;10.454;2022-11-20T14:19:31;0.50;99.90
19799;DHT22;10059;59.850;10.454;2022-11-20T14:22:14;0.60;99.90
19799;DHT22;10059;59.850;10.454;2022-11-20T14:24:43;0.60;99.90
19799;DHT22;10059;59.850;10.454;2022-11-20T14:27:15;0.70;99.90
19799;DHT22;10059;59.850;10.454;2022-11-20T14:29:45;0.70;99.90
19799;DHT22;10059;59.850;10.454;2022-11-20T14:32:15;0.60;99.90
19799;DHT22;10059;59.850;10.454;2022-11-20T14:34:45;0.50;99.90
19799;DHT22;10059;59.850;10.454;2022-11-20T14:37:17;0.60;99.90
19799;DHT22;10059;59.850;10.454;2022-11-20T14:39:49;0.60;99.90
19799;DHT22;10059;59.850;10.454;2022-11-20T14:42:19;0.50;99.90
19799;DHT22;10059;59.850;10.454;2022-11-20T14:44:48;0.60;99.90
19799;DHT22;10059;59.850;10.454;2022-11-20T14:47:20;0.60;99.90
19799;DHT22;10059;59.850;10.454;2022-11-20T14:49:48;0.60;99.90
19799;DHT22;10059;59.850;10.454;2022-11-20T14:52:17;0.70;99.90
19799;DHT22;10059;59.850;10.454;2022-11-20T14:54:45;0.60;99.90
19799;DHT22;10059;59.850;10.454;2022-11-20T14:57:24;0.50;99.90
19799;DHT22;10059;59.850;10.454;2022-11-20T15:00:04;0.50;99.90
19799;DHT22;10059;59.850;10.454;2022-11-20T15:02:32;0.50;99.90
19799;DHT22;10059;59.850;10.454;2022-11-20T15:05:01;0.50;99.90
19799;DHT22;10059;59.850;10.454;2022-11-20T15:07:30;0.60;99.90
19799;DHT22;10059;59.850;10.454;2022-11-20T15:10:04;0.50;99.90
19799;DHT22;10059;59.850;10.454;2022-11-20T15:12:32;0.50;99.90
19799;DHT22;10059;59.850;10.454;2022-11-20T15:15:01;0.50;99.90
19799;DHT22;10059;59.850;10.454;2022-11-20T15:17:28;0.50;99.90
19799;DHT22;10059;59.850;10.454;2022-11-20T15:19:56;0.40;99.90
19799;DHT22;10059;59.850;10.454;2022-11-20T15:22:23;0.30;99.90
19799;DHT22;10059;59.850;10.454;2022-11-20T15:24:50;0.40;99.90
19799;DHT22;10059;59.850;10.454;2022-11-20T15:27:16;0.30;99.90
19799;DHT22;10059;59.850;10.454;2022-11-20T15:29:43;0.30;99.90
19799;DHT22;10059;59.850;10.454;2022-11-20T15:32:12;0.30;99.90
19799;DHT22;10059;59.850;10.454;2022-11-20T15:34:39;0.30;99.90
19799;DHT22;10059;59.850;10.454;2022-11-20T15:37:06;0.40;99.90
19799;DHT22;10059;59.850;10.454;2022-11-20T15:39:32;0.40;99.90
19799;DHT22;10059;59.850;10.454;2022-11-20T15:41:59;0.40;99.90
19799;DHT22;10059;59.850;10.454;2022-11-20T15:44:26;0.40;99.90
19799;DHT22;10059;59.850;10.454;2022-11-20T15:46:53;0.30;99.90